Angola, Kansas
Current Conditions -  °F | °C
As of 7:52 AM on Thursday 27 Nov 2014 (Local Time) from KCFV Reporting Station
Clear Clear  
Wind Chill: 24°   Ceiling: Unl
Heat Index: 24°   Visibility: 7mi
Dew Point: 20°   Wind: 3mph
Humidity: 84%   Direction: 330°NNW
Pressure: 30.55"   Gusts: NA
Location:  37.067°N, 95.5817°W
Report Text: KCFV 271352Z AUTO 33003KT 7SM CLR M04/M07 A3055 RMK AO2 SLP352 T10441067
Loading
Personal Weather Stations






























Interactive Weather Map New forecast layout! Learn more

10-Day Weather Forecast

Advertisements
Track Severe Weather on mobile